Time;durP1;ratioP1;P1;durP2;ratioP2;P2;SDS_P1;SDS_P2;PMS_P1;PMS_P2;Temp;Humidity;BMP_temperature;BMP_pressure;BME280_temperature;BME280_humidity;BME280_pressure;Samples;Min_cycle;Max_cycle;Signal;HPM_P1;HPM_P2
2022/10/17 00:00:39;;;;;;;7.90;3.27;;;11.60;99.90;;;;;;5038930;28;20227;-48
2022/10/17 00:03:05;;;;;;;4.07;3.03;;;11.70;99.90;;;;;;5036281;28;20951;-51
2022/10/17 00:05:32;;;;;;;8.87;2.90;;;11.70;99.90;;;;;;5043083;28;20199;-50
2022/10/17 00:07:59;;;;;;;5.07;2.93;;;11.70;99.90;;;;;;5040846;28;20195;-49
2022/10/17 00:10:26;;;;;;;6.03;2.87;;;11.60;99.90;;;;;;5029239;28;20222;-48
2022/10/17 00:12:52;;;;;;;4.87;3.10;;;11.70;99.90;;;;;;5037191;28;20199;-51
2022/10/17 00:15:20;;;;;;;4.90;2.67;;;11.70;99.90;;;;;;5035534;28;20207;-50
2022/10/17 00:17:48;;;;;;;6.87;3.27;;;11.70;99.90;;;;;;5033138;28;20270;-55
2022/10/17 00:20:16;;;;;;;6.00;2.97;;;11.70;99.90;;;;;;5036311;28;20214;-51
2022/10/17 00:22:43;;;;;;;4.37;3.03;;;11.80;99.90;;;;;;5038225;28;20310;-50
2022/10/17 00:25:10;;;;;;;6.53;3.07;;;11.80;99.90;;;;;;5026068;28;20285;-50
2022/10/17 00:27:37;;;;;;;6.83;2.50;;;11.80;99.90;;;;;;5044512;28;20207;-53
2022/10/17 00:30:05;;;;;;;5.57;2.87;;;11.80;99.90;;;;;;5039871;28;20208;-48
2022/10/17 00:32:32;;;;;;;5.67;2.77;;;11.80;99.90;;;;;;5034655;28;20199;-50
2022/10/17 00:35:01;;;;;;;6.23;3.00;;;11.70;99.90;;;;;;5039041;28;20198;-50
2022/10/17 00:37:29;;;;;;;7.60;3.13;;;11.70;99.90;;;;;;5043444;28;20207;-47
2022/10/17 00:39:56;;;;;;;5.17;3.10;;;11.70;99.90;;;;;;5026069;28;20223;-53
2022/10/17 00:42:23;;;;;;;5.60;3.07;;;11.80;99.90;;;;;;5043124;28;20198;-49
2022/10/17 00:45:13;;;;;;;9.50;2.80;;;11.80;99.90;;;;;;5038676;28;20589;-51
2022/10/17 00:47:44;;;;;;;4.87;2.37;;;11.80;99.90;;;;;;5031450;28;20302;-52
2022/10/17 00:50:14;;;;;;;5.67;3.07;;;11.80;99.90;;;;;;5037047;28;20223;-53
2022/10/17 00:52:41;;;;;;;4.67;2.47;;;11.80;99.90;;;;;;5029014;28;20195;-50
2022/10/17 00:55:13;;;;;;;5.00;2.57;;;11.80;99.90;;;;;;5043172;28;20203;-48
2022/10/17 00:57:42;;;;;;;2.60;2.40;;;11.80;99.90;;;;;;5026380;28;20203;-47
2022/10/17 01:00:11;;;;;;;7.30;3.40;;;11.80;99.90;;;;;;5042415;28;20216;-51
2022/10/17 01:02:38;;;;;;;4.40;2.83;;;11.80;99.90;;;;;;5030502;28;20195;-48
2022/10/17 01:05:07;;;;;;;3.77;3.07;;;11.80;99.90;;;;;;5041139;28;20201;-51
2022/10/17 01:07:37;;;;;;;10.47;2.60;;;11.80;99.90;;;;;;5039210;28;20239;-50
2022/10/17 01:10:06;;;;;;;6.80;2.60;;;11.80;99.90;;;;;;5043610;28;20227;-51
2022/10/17 01:12:44;;;;;;;4.23;2.80;;;11.80;99.90;;;;;;5025636;28;20215;-52
2022/10/17 01:15:16;;;;;;;5.27;2.43;;;11.70;99.90;;;;;;5040688;28;20199;-50
2022/10/17 01:17:56;;;;;;;2.97;2.67;;;11.80;99.90;;;;;;5030230;28;20277;-48
2022/10/17 01:20:48;;;;;;;2.83;2.47;;;11.80;99.90;;;;;;5021309;28;20231;-53
2022/10/17 01:23:31;;;;;;;4.00;2.83;;;11.80;99.90;;;;;;5023231;28;20195;-51
2022/10/17 01:26:10;;;;;;;5.90;2.87;;;11.80;99.90;;;;;;5025839;28;20622;-48
2022/10/17 01:29:02;;;;;;;4.10;2.60;;;11.80;99.90;;;;;;5038583;28;20292;-48
2022/10/17 01:31:36;;;;;;;8.03;2.77;;;11.90;99.90;;;;;;5034663;28;20216;-50
2022/10/17 01:34:11;;;;;;;3.77;2.77;;;11.90;99.90;;;;;;5030739;28;20200;-48
2022/10/17 01:36:44;;;;;;;7.33;2.63;;;11.90;99.90;;;;;;5038429;28;20225;-47
2022/10/17 01:39:16;;;;;;;8.27;2.77;;;11.90;99.90;;;;;;5042397;28;20199;-50
2022/10/17 01:41:49;;;;;;;8.10;2.57;;;11.90;99.90;;;;;;5024116;28;20848;-49
2022/10/17 01:44:22;;;;;;;7.73;2.60;;;11.90;99.90;;;;;;5042362;28;20199;-52
2022/10/17 01:46:54;;;;;;;6.90;2.77;;;11.90;99.90;;;;;;5039723;28;20211;-49
2022/10/17 01:49:26;;;;;;;3.63;2.57;;;11.90;99.90;;;;;;5036256;28;20253;-53
2022/10/17 01:51:59;;;;;;;5.80;3.03;;;11.90;99.90;;;;;;5038605;28;20186;-48
2022/10/17 01:54:32;;;;;;;3.43;2.50;;;11.90;99.90;;;;;;5038807;28;20683;-53
2022/10/17 01:57:04;;;;;;;4.77;2.60;;;12.00;99.90;;;;;;5029196;28;20266;-48
2022/10/17 01:59:38;;;;;;;3.97;2.73;;;12.00;99.90;;;;;;5038524;28;20223;-53
2022/10/17 02:02:09;;;;;;;5.00;2.70;;;12.00;99.90;;;;;;5042295;28;20198;-48
2022/10/17 02:04:37;;;;;;;3.07;2.23;;;11.90;99.90;;;;;;5032053;28;20242;-51
2022/10/17 02:07:08;;;;;;;6.40;2.73;;;11.90;99.90;;;;;;5038331;28;20231;-50
2022/10/17 02:09:35;;;;;;;4.70;2.30;;;12.00;99.90;;;;;;5038422;28;20206;-55
2022/10/17 02:12:31;;;;;;;6.77;2.33;;;12.00;99.90;;;;;;5026550;28;20211;-51
2022/10/17 02:15:10;;;;;;;4.43;2.67;;;12.00;99.90;;;;;;5041600;28;20679;-49
2022/10/17 02:17:48;;;;;;;4.70;2.57;;;12.00;99.90;;;;;;5037046;28;20215;-51
2022/10/17 02:20:23;;;;;;;9.00;2.80;;;12.00;99.90;;;;;;5044996;28;20230;-50
2022/10/17 02:22:57;;;;;;;4.43;3.10;;;12.00;99.90;;;;;;5033216;28;20821;-49
2022/10/17 02:25:33;;;;;;;3.53;2.40;;;12.00;99.90;;;;;;5039785;28;20660;-52
2022/10/17 02:28:10;;;;;;;6.30;2.17;;;12.00;99.90;;;;;;5028923;28;20219;-48
2022/10/17 02:30:41;;;;;;;4.03;2.80;;;12.00;99.90;;;;;;5035063;28;20219;-52
2022/10/17 02:33:14;;;;;;;6.00;2.90;;;12.00;99.90;;;;;;5042223;28;20679;-51
2022/10/17 02:35:46;;;;;;;5.20;3.00;;;12.00;99.90;;;;;;5027675;28;20596;-49
2022/10/17 02:38:15;;;;;;;3.37;2.50;;;12.00;99.90;;;;;;5033458;28;20188;-50
2022/10/17 02:40:45;;;;;;;3.63;2.80;;;12.00;99.90;;;;;;5038099;28;20208;-49
2022/10/17 02:43:14;;;;;;;3.47;2.40;;;12.00;99.90;;;;;;5025340;28;20215;-50
2022/10/17 02:45:41;;;;;;;8.13;2.73;;;12.10;99.90;;;;;;5039893;28;20191;-48
2022/10/17 02:48:16;;;;;;;9.30;2.90;;;12.10;99.90;;;;;;5046373;28;20691;-49
2022/10/17 02:50:59;;;;;;;4.80;2.60;;;12.10;99.90;;;;;;5038219;28;20789;-51
2022/10/17 02:53:40;;;;;;;2.77;2.57;;;12.10;99.90;;;;;;5033901;28;20721;-51
2022/10/17 02:56:14;;;;;;;3.87;2.70;;;12.20;99.90;;;;;;5044867;28;20195;-50
2022/10/17 02:58:45;;;;;;;5.13;2.77;;;12.20;99.90;;;;;;5025853;28;20454;-49
2022/10/17 03:01:14;;;;;;;6.30;3.03;;;12.20;99.90;;;;;;5044886;28;20218;-51
2022/10/17 03:03:42;;;;;;;8.90;3.30;;;12.20;99.90;;;;;;5040322;28;20290;-49
2022/10/17 03:06:08;;;;;;;3.37;2.90;;;12.20;99.90;;;;;;5044967;28;20195;-48
2022/10/17 03:08:35;;;;;;;6.03;2.83;;;12.30;99.90;;;;;;5030579;28;20223;-53
2022/10/17 03:11:02;;;;;;;4.67;2.83;;;12.30;99.90;;;;;;5046275;28;20223;-50
2022/10/17 03:13:30;;;;;;;3.33;2.37;;;12.40;99.90;;;;;;5040065;28;20206;-54
2022/10/17 03:15:57;;;;;;;3.37;2.90;;;12.40;99.90;;;;;;5030472;28;20273;-48
2022/10/17 03:18:25;;;;;;;5.13;2.40;;;12.50;99.90;;;;;;5043980;28;20684;-53
2022/10/17 03:20:57;;;;;;;3.20;2.80;;;12.50;99.90;;;;;;5042835;28;20223;-49
2022/10/17 03:23:25;;;;;;;4.33;2.63;;;12.50;99.90;;;;;;5035633;28;20237;-50
2022/10/17 03:25:52;;;;;;;2.77;2.47;;;12.60;99.90;;;;;;5039109;28;20214;-49
2022/10/17 03:28:19;;;;;;;5.43;2.80;;;12.60;99.90;;;;;;5044685;28;20218;-54
2022/10/17 03:30:46;;;;;;;4.37;2.60;;;12.60;99.90;;;;;;5027272;28;20735;-48
2022/10/17 03:33:13;;;;;;;4.73;2.50;;;12.60;99.90;;;;;;5043012;28;20191;-48
2022/10/17 03:35:40;;;;;;;3.73;2.40;;;12.70;99.90;;;;;;5040751;28;20199;-50
2022/10/17 03:38:09;;;;;;;5.73;2.20;;;12.70;99.90;;;;;;5038682;28;20298;-48
2022/10/17 03:40:36;;;;;;;8.33;2.40;;;12.70;99.90;;;;;;5035272;28;20219;-48
2022/10/17 03:43:04;;;;;;;3.83;2.30;;;12.70;99.90;;;;;;5042814;28;20226;-48
2022/10/17 03:45:31;;;;;;;4.20;2.30;;;12.70;99.90;;;;;;5029928;28;20672;-49
2022/10/17 03:47:58;;;;;;;3.10;2.03;;;12.70;99.90;;;;;;5041598;28;20255;-48
2022/10/17 03:50:25;;;;;;;2.23;2.07;;;12.70;99.90;;;;;;5042268;28;20299;-55
2022/10/17 03:52:52;;;;;;;2.70;1.80;;;12.70;99.90;;;;;;5037645;28;20513;-48
2022/10/17 03:55:21;;;;;;;3.20;2.07;;;12.70;99.90;;;;;;5036379;28;20661;-52
2022/10/17 03:57:48;;;;;;;2.83;1.80;;;12.70;99.90;;;;;;5042246;28;20179;-51
2022/10/17 04:00:17;;;;;;;3.47;1.70;;;12.70;99.90;;;;;;5039092;28;20220;-53
2022/10/17 04:02:53;;;;;;;5.20;2.00;;;12.70;99.90;;;;;;5042154;28;20725;-48
2022/10/17 04:05:20;;;;;;;1.83;1.73;;;12.60;99.90;;;;;;5041746;28;20199;-53
2022/10/17 04:07:47;;;;;;;2.97;1.97;;;12.60;99.90;;;;;;5035677;28;20345;-49
2022/10/17 04:10:17;;;;;;;2.70;1.60;;;12.60;99.90;;;;;;5038706;28;20227;-51
2022/10/17 04:12:45;;;;;;;4.23;1.97;;;12.60;99.90;;;;;;5034158;28;20261;-49
2022/10/17 04:15:12;;;;;;;3.23;2.33;;;12.60;99.90;;;;;;5043845;28;20210;-48
2022/10/17 04:17:40;;;;;;;3.37;1.90;;;12.60;99.90;;;;;;5027079;28;20531;-47
2022/10/17 04:20:08;;;;;;;2.57;1.73;;;12.60;99.90;;;;;;5043160;28;20531;-49
2022/10/17 04:22:35;;;;;;;3.13;1.60;;;12.60;99.90;;;;;;5040629;28;20207;-47
2022/10/17 04:25:02;;;;;;;2.20;2.00;;;12.50;99.90;;;;;;5032234;28;20200;-46
2022/10/17 04:27:39;;;;;;;2.00;1.80;;;12.50;99.90;;;;;;5034274;28;20223;-49
2022/10/17 04:30:08;;;;;;;3.93;1.60;;;12.50;99.90;;;;;;5042977;28;20290;-47
2022/10/17 04:32:37;;;;;;;2.33;1.70;;;12.50;99.90;;;;;;5038785;28;22195;-49
2022/10/17 04:35:21;;;;;;;2.23;1.90;;;12.50;99.90;;;;;;5040882;28;20192;-51
2022/10/17 04:37:54;;;;;;;3.33;1.97;;;12.40;99.90;;;;;;5041123;28;20200;-47
2022/10/17 04:40:20;;;;;;;2.20;2.00;;;12.40;99.90;;;;;;5034184;28;20600;-50
2022/10/17 04:42:47;;;;;;;3.23;2.10;;;12.40;99.90;;;;;;5030897;28;20926;-52
2022/10/17 04:45:19;;;;;;;4.97;1.90;;;12.40;99.90;;;;;;5032700;28;20195;-54
2022/10/17 04:47:49;;;;;;;2.13;1.83;;;12.40;99.90;;;;;;5024689;28;20223;-47
2022/10/17 04:50:16;;;;;;;1.97;1.87;;;12.30;99.90;;;;;;5041242;28;20226;-50
2022/10/17 04:52:52;;;;;;;2.50;2.30;;;12.30;99.90;;;;;;5035023;28;20202;-49
2022/10/17 04:55:19;;;;;;;5.00;2.00;;;12.30;99.90;;;;;;5029146;28;20269;-47
2022/10/17 04:57:45;;;;;;;1.90;1.80;;;12.20;99.90;;;;;;5037841;28;20203;-49
2022/10/17 05:00:20;;;;;;;2.67;2.10;;;12.20;99.90;;;;;;5031514;28;20208;-49
2022/10/17 05:02:54;;;;;;;2.90;1.90;;;12.20;99.90;;;;;;5055390;28;20195;-47
2022/10/17 05:05:20;;;;;;;2.07;1.80;;;12.20;99.90;;;;;;5022742;28;20203;-49
2022/10/17 05:07:50;;;;;;;1.93;1.83;;;12.10;99.90;;;;;;5042173;28;20597;-49
2022/10/17 05:10:19;;;;;;;4.23;2.60;;;12.10;99.90;;;;;;5026134;28;20963;-47
2022/10/17 05:12:49;;;;;;;2.70;2.27;;;12.10;99.90;;;;;;5027236;28;20922;-52
2022/10/17 05:15:19;;;;;;;3.80;2.27;;;12.10;99.90;;;;;;5031364;28;20668;-53
2022/10/17 05:17:47;;;;;;;3.27;2.03;;;12.10;99.90;;;;;;5034305;28;20276;-50
2022/10/17 05:20:13;;;;;;;2.60;1.87;;;12.10;99.90;;;;;;5025817;28;20227;-50
2022/10/17 05:22:41;;;;;;;4.77;2.77;;;12.10;99.90;;;;;;5041773;28;20195;-48
2022/10/17 05:25:08;;;;;;;2.40;2.20;;;12.10;99.90;;;;;;5038510;28;20195;-52
2022/10/17 05:27:35;;;;;;;2.33;1.63;;;12.00;99.90;;;;;;5034578;28;20221;-48
2022/10/17 05:30:02;;;;;;;3.20;2.37;;;12.00;99.90;;;;;;5032479;28;20974;-49
2022/10/17 05:32:34;;;;;;;3.97;2.27;;;12.00;99.90;;;;;;5028266;28;20230;-50
2022/10/17 05:35:02;;;;;;;2.70;2.10;;;12.00;99.90;;;;;;5035295;28;20577;-49
2022/10/17 05:37:29;;;;;;;2.07;1.87;;;12.00;99.90;;;;;;5031888;28;20268;-49
2022/10/17 05:39:57;;;;;;;3.60;1.90;;;12.00;99.90;;;;;;5059360;28;20217;-49
2022/10/17 05:42:24;;;;;;;2.30;2.10;;;12.00;99.90;;;;;;5023598;28;20207;-49
2022/10/17 05:44:51;;;;;;;2.60;2.17;;;11.90;99.90;;;;;;5039865;28;20260;-47
2022/10/17 05:47:19;;;;;;;3.03;2.17;;;11.90;99.90;;;;;;5033800;28;20207;-51
2022/10/17 05:49:47;;;;;;;2.90;2.40;;;11.90;99.90;;;;;;5027050;28;20225;-46
2022/10/17 05:52:14;;;;;;;2.53;2.00;;;11.90;99.90;;;;;;5032085;28;20669;-53
2022/10/17 05:54:54;;;;;;;2.37;2.10;;;11.90;99.90;;;;;;5035607;28;20210;-49
2022/10/17 05:57:24;;;;;;;3.70;2.30;;;11.90;99.90;;;;;;5028362;28;20195;-51
2022/10/17 05:59:51;;;;;;;3.83;2.70;;;11.80;99.90;;;;;;5039254;28;20215;-47
2022/10/17 06:02:20;;;;;;;4.30;2.17;;;11.80;99.90;;;;;;5031979;28;20290;-50
2022/10/17 06:04:49;;;;;;;3.00;2.17;;;11.80;99.90;;;;;;5040079;28;20648;-50
2022/10/17 06:07:17;;;;;;;4.87;2.43;;;11.80;99.90;;;;;;5023260;28;20214;-50
2022/10/17 06:09:44;;;;;;;3.73;2.63;;;11.80;99.90;;;;;;5042350;28;20207;-48
2022/10/17 06:12:11;;;;;;;4.40;2.40;;;11.80;99.90;;;;;;5036704;28;20191;-49
2022/10/17 06:14:37;;;;;;;2.67;2.47;;;11.80;99.90;;;;;;5034683;28;20195;-42
2022/10/17 06:17:06;;;;;;;2.80;2.60;;;11.80;99.90;;;;;;5035236;28;20252;-44
2022/10/17 06:19:33;;;;;;;7.07;2.60;;;11.80;99.90;;;;;;5037574;28;20210;-42
2022/10/17 06:22:01;;;;;;;2.67;2.47;;;11.80;99.90;;;;;;5030134;28;20321;-43
2022/10/17 06:24:28;;;;;;;5.07;2.73;;;11.80;99.90;;;;;;5038207;28;20999;-42
2022/10/17 06:26:56;;;;;;;3.60;2.23;;;11.80;99.90;;;;;;5044890;28;20223;-46
2022/10/17 06:29:23;;;;;;;3.90;2.20;;;11.90;99.90;;;;;;5033866;28;20211;-42
2022/10/17 06:31:52;;;;;;;2.70;2.20;;;11.90;99.90;;;;;;5058686;28;20223;-46
2022/10/17 06:34:20;;;;;;;4.67;2.67;;;12.00;99.90;;;;;;5035034;28;20199;-45
2022/10/17 06:36:47;;;;;;;2.90;2.67;;;12.00;99.90;;;;;;5029891;28;20199;-46
2022/10/17 06:39:15;;;;;;;2.47;2.17;;;12.00;99.90;;;;;;5041391;28;20192;-44
2022/10/17 06:41:56;;;;;;;4.97;2.37;;;12.10;99.90;;;;;;5044202;28;20198;-44
2022/10/17 06:44:39;;;;;;;3.77;2.40;;;12.10;99.90;;;;;;5035262;28;20202;-42
2022/10/17 06:47:31;;;;;;;4.17;2.73;;;12.20;99.90;;;;;;5035098;28;20692;-41
2022/10/17 06:50:00;;;;;;;4.50;2.60;;;12.20;99.90;;;;;;5043037;28;20309;-44
2022/10/17 06:52:36;;;;;;;3.10;2.83;;;12.30;99.90;;;;;;5027123;28;20226;-43
2022/10/17 06:55:34;;;;;;;3.10;2.80;;;12.30;99.90;;;;;;5000514;28;20267;-45
2022/10/17 06:58:23;;;;;;;2.50;2.13;;;12.40;99.90;;;;;;5040358;28;20279;-44
2022/10/17 07:01:30;;;;;;;2.47;2.27;;;12.50;99.90;;;;;;5029689;28;20219;-42
2022/10/17 07:03:59;;;;;;;3.87;2.70;;;12.50;99.90;;;;;;5039219;28;20196;-43
2022/10/17 07:06:26;;;;;;;4.10;2.67;;;12.60;99.90;;;;;;5042157;28;20191;-44
2022/10/17 07:08:55;;;;;;;3.37;2.50;;;12.70;99.90;;;;;;5024410;28;20942;-43
2022/10/17 07:11:24;;;;;;;4.70;2.30;;;12.80;99.90;;;;;;5045045;28;20269;-42
2022/10/17 07:13:52;;;;;;;3.80;2.50;;;12.90;99.90;;;;;;5029486;28;20208;-42
2022/10/17 07:16:20;;;;;;;5.17;2.40;;;13.00;99.90;;;;;;5043116;28;20199;-41
2022/10/17 07:18:51;;;;;;;2.90;2.60;;;13.10;99.90;;;;;;5028187;28;20289;-41
2022/10/17 07:21:19;;;;;;;5.47;3.10;;;13.20;99.90;;;;;;5043188;28;20219;-43
2022/10/17 07:23:46;;;;;;;4.23;2.70;;;13.20;99.90;;;;;;5017571;28;20216;-41
2022/10/17 07:26:15;;;;;;;4.83;2.43;;;13.30;99.90;;;;;;5031404;28;20203;-41
2022/10/17 07:28:47;;;;;;;3.50;2.53;;;13.50;99.90;;;;;;5020615;28;20227;-40
2022/10/17 07:31:27;;;;;;;6.23;3.00;;;13.50;99.90;;;;;;5051993;28;20702;-42
2022/10/17 07:33:54;;;;;;;2.90;2.67;;;13.70;99.90;;;;;;5031712;28;20218;-44
2022/10/17 07:36:21;;;;;;;2.73;2.40;;;13.80;99.90;;;;;;5008983;28;20192;-46
2022/10/17 07:38:48;;;;;;;3.33;2.43;;;13.90;99.90;;;;;;5020391;28;20221;-45
2022/10/17 07:41:16;;;;;;;3.37;2.27;;;14.00;99.90;;;;;;5027303;28;20246;-42
2022/10/17 07:43:42;;;;;;;2.50;2.27;;;14.10;99.90;;;;;;5026147;28;20559;-45
2022/10/17 07:46:11;;;;;;;2.53;2.33;;;14.20;99.90;;;;;;5037505;28;20191;-43
2022/10/17 07:48:39;;;;;;;2.60;2.40;;;14.20;99.90;;;;;;5033747;28;20563;-43
2022/10/17 07:51:08;;;;;;;2.70;2.50;;;14.30;99.90;;;;;;5036050;28;20258;-44
2022/10/17 07:53:35;;;;;;;2.70;2.40;;;14.30;99.90;;;;;;5025577;28;20302;-46
2022/10/17 07:56:05;;;;;;;3.10;2.20;;;14.40;99.90;;;;;;5019192;28;20218;-43
2022/10/17 07:58:32;;;;;;;3.10;2.80;;;14.50;99.90;;;;;;5028326;28;20230;-43
2022/10/17 08:01:01;;;;;;;3.60;2.60;;;14.70;99.90;;;;;;5037104;28;20309;-45
2022/10/17 08:03:29;;;;;;;3.87;2.47;;;14.80;99.90;;;;;;5033138;28;20394;-43
2022/10/17 08:05:58;;;;;;;3.90;2.40;;;15.00;99.90;;;;;;5038510;28;20199;-45
2022/10/17 08:08:25;;;;;;;4.73;2.77;;;15.00;99.90;;;;;;5040068;28;20265;-43
2022/10/17 08:10:53;;;;;;;2.60;2.40;;;15.10;99.90;;;;;;5019520;28;20226;-43
2022/10/17 08:13:20;;;;;;;2.80;2.60;;;15.20;99.90;;;;;;5027302;28;20210;-47
2022/10/17 08:15:48;;;;;;;2.57;2.37;;;15.30;99.90;;;;;;5032626;28;20213;-48
2022/10/17 08:18:16;;;;;;;5.07;2.87;;;15.20;99.90;;;;;;5037727;28;20199;-43
2022/10/17 08:20:45;;;;;;;3.17;2.87;;;15.30;99.90;;;;;;5035404;28;20833;-43
2022/10/17 08:23:12;;;;;;;2.70;2.50;;;15.40;99.90;;;;;;5039905;28;20253;-43
2022/10/17 08:25:39;;;;;;;3.23;2.73;;;15.40;99.90;;;;;;5032435;28;20250;-45
2022/10/17 08:28:06;;;;;;;3.50;2.33;;;15.50;99.90;;;;;;5031831;28;20236;-43
2022/10/17 08:30:32;;;;;;;3.80;2.43;;;15.50;99.90;;;;;;5030740;28;20223;-45
2022/10/17 08:32:59;;;;;;;4.53;2.40;;;15.60;99.90;;;;;;5028372;28;20211;-41
2022/10/17 08:35:26;;;;;;;2.63;2.47;;;15.70;99.90;;;;;;5036756;28;20568;-46
2022/10/17 08:37:54;;;;;;;4.07;2.50;;;15.80;99.90;;;;;;5040596;28;20238;-42
2022/10/17 08:40:23;;;;;;;2.67;2.30;;;15.90;99.90;;;;;;5040126;28;20271;-44
2022/10/17 08:43:11;;;;;;;2.40;2.20;;;16.00;99.90;;;;;;5017785;28;23444;-45
2022/10/17 08:45:44;;;;;;;4.17;2.30;;;16.10;99.90;;;;;;5032786;28;20321;-47
2022/10/17 08:48:15;;;;;;;5.33;2.47;;;16.20;99.90;;;;;;5034489;28;20221;-42
2022/10/17 08:50:46;;;;;;;3.00;2.30;;;16.30;99.90;;;;;;5034304;28;20937;-44
2022/10/17 08:53:21;;;;;;;2.70;2.50;;;16.30;99.90;;;;;;5037576;28;20549;-45
2022/10/17 08:55:49;;;;;;;2.83;2.43;;;16.40;99.90;;;;;;5036581;28;20936;-45
2022/10/17 08:58:20;;;;;;;2.47;2.27;;;16.40;99.90;;;;;;5017242;28;20619;-43
2022/10/17 09:00:52;;;;;;;4.83;2.77;;;16.50;99.90;;;;;;5024370;28;20231;-44
2022/10/17 09:03:38;;;;;;;2.93;1.93;;;16.50;99.90;;;;;;5020658;28;20207;-43
2022/10/17 09:06:17;;;;;;;6.00;2.30;;;16.60;99.90;;;;;;5023650;28;20476;-41
2022/10/17 09:08:55;;;;;;;3.70;2.43;;;16.70;99.90;;;;;;5031589;28;20578;-42
2022/10/17 09:11:37;;;;;;;2.73;2.40;;;16.70;99.90;;;;;;5041351;28;20222;-45
2022/10/17 09:14:17;;;;;;;4.60;2.20;;;16.80;99.90;;;;;;5034421;28;20211;-42
2022/10/17 09:16:57;;;;;;;3.37;2.50;;;16.80;99.90;;;;;;5018753;28;20218;-43
2022/10/17 09:19:28;;;;;;;4.07;3.07;;;16.90;99.90;;;;;;5027784;28;20944;-44
2022/10/17 09:21:59;;;;;;;2.87;2.67;;;16.90;99.90;;;;;;5032650;28;20287;-45
2022/10/17 09:24:39;;;;;;;2.80;2.30;;;17.00;99.90;;;;;;5031118;28;20298;-44
2022/10/17 09:27:16;;;;;;;3.87;2.80;;;17.00;99.90;;;;;;5025403;28;20222;-43
2022/10/17 09:29:45;;;;;;;2.93;2.17;;;17.00;99.90;;;;;;5035716;28;20718;-43
2022/10/17 09:32:17;;;;;;;3.47;2.83;;;17.10;99.90;;;;;;5022705;28;20261;-42
2022/10/17 09:34:44;;;;;;;5.07;3.40;;;17.20;99.90;;;;;;5031382;28;20204;-42
2022/10/17 09:37:14;;;;;;;3.70;2.40;;;17.30;99.90;;;;;;5029646;28;20203;-44
2022/10/17 09:39:42;;;;;;;3.87;2.53;;;17.30;99.90;;;;;;5031494;28;20211;-43
2022/10/17 09:42:14;;;;;;;4.00;2.40;;;17.30;99.90;;;;;;5031991;28;20211;-42
2022/10/17 09:44:49;;;;;;;3.50;2.57;;;17.30;99.90;;;;;;5018499;28;20226;-42
2022/10/17 09:47:28;;;;;;;3.37;2.60;;;17.40;99.90;;;;;;5018711;28;20237;-43
2022/10/17 09:49:55;;;;;;;5.13;2.57;;;17.40;99.90;;;;;;5028063;28;20226;-43
2022/10/17 09:52:27;;;;;;;2.77;2.53;;;17.50;99.90;;;;;;5021416;28;20210;-42
2022/10/17 09:55:01;;;;;;;2.70;2.40;;;17.50;99.90;;;;;;5026402;28;20230;-49
2022/10/17 09:57:28;;;;;;;2.60;2.40;;;17.60;99.90;;;;;;5030270;28;20210;-45
2022/10/17 09:59:59;;;;;;;4.60;2.60;;;17.70;99.90;;;;;;5021373;28;20222;-45
2022/10/17 10:02:28;;;;;;;3.97;2.50;;;17.70;99.90;;;;;;5023463;28;20235;-46
2022/10/17 10:04:57;;;;;;;2.57;2.33;;;17.80;99.90;;;;;;5025561;28;20269;-46
2022/10/17 10:07:27;;;;;;;5.80;3.00;;;17.90;99.90;;;;;;5026830;28;20191;-44
2022/10/17 10:09:56;;;;;;;3.50;2.50;;;17.90;99.90;;;;;;5028731;28;20289;-45
2022/10/17 10:12:25;;;;;;;7.93;2.90;;;18.00;99.90;;;;;;5028083;28;20373;-49
2022/10/17 10:14:52;;;;;;;3.43;2.70;;;18.10;99.90;;;;;;5020501;28;20227;-45
2022/10/17 10:17:40;;;;;;;4.00;2.50;;;18.20;99.90;;;;;;5026466;28;20211;-50
2022/10/17 10:20:26;;;;;;;3.60;2.60;;;18.20;99.90;;;;;;5030514;28;20219;-45
2022/10/17 10:23:14;;;;;;;8.10;2.40;;;18.30;99.90;;;;;;5020994;28;20207;-47
2022/10/17 10:25:55;;;;;;;4.43;2.50;;;18.40;99.90;;;;;;5032792;28;20207;-46
2022/10/17 10:28:25;;;;;;;4.27;2.53;;;18.40;99.90;;;;;;5035711;28;20282;-46
2022/10/17 10:30:54;;;;;;;3.07;2.27;;;18.50;99.90;;;;;;5009787;28;20251;-46
2022/10/17 10:33:23;;;;;;;5.50;2.77;;;18.50;99.90;;;;;;5030574;28;20217;-47
2022/10/17 10:35:56;;;;;;;4.67;2.90;;;18.60;99.90;;;;;;5025163;28;20214;-47
2022/10/17 10:38:23;;;;;;;4.10;2.50;;;18.70;99.90;;;;;;5026298;28;20295;-47
2022/10/17 10:40:54;;;;;;;4.03;2.80;;;18.70;99.90;;;;;;5028862;28;20227;-47
2022/10/17 10:43:24;;;;;;;4.73;2.30;;;18.80;99.90;;;;;;5032449;28;20203;-43
2022/10/17 10:45:53;;;;;;;3.60;2.70;;;18.80;99.90;;;;;;5011684;28;20286;-46
2022/10/17 10:48:22;;;;;;;4.67;3.00;;;18.90;99.90;;;;;;5024279;28;20261;-46
2022/10/17 10:50:51;;;;;;;4.70;3.00;;;19.00;99.90;;;;;;5015304;28;20227;-45
2022/10/17 10:53:35;;;;;;;4.70;2.93;;;19.10;99.90;;;;;;5023287;28;20199;-45
2022/10/17 10:56:09;;;;;;;4.40;3.00;;;;;;;;;;5028743;28;20199;-44
2022/10/17 10:58:52;;;;;;;3.20;2.70;;;19.20;99.90;;;;;;5028183;28;20304;-45
2022/10/17 11:01:27;;;;;;;5.20;2.67;;;19.20;99.90;;;;;;5009302;28;20452;-44
2022/10/17 11:04:17;;;;;;;3.17;2.70;;;19.20;99.90;;;;;;5025101;28;20281;-43
2022/10/17 11:06:45;;;;;;;4.63;3.57;;;19.30;99.90;;;;;;5033694;28;20195;-46
2022/10/17 11:09:22;;;;;;;2.90;2.70;;;19.30;99.90;;;;;;5027791;28;20206;-48
2022/10/17 11:11:58;;;;;;;3.63;3.03;;;19.30;99.90;;;;;;5036127;28;20226;-42
2022/10/17 11:14:42;;;;;;;3.80;2.60;;;19.30;99.90;;;;;;5034478;28;20190;-43
2022/10/17 11:17:17;;;;;;;3.60;2.73;;;19.30;99.90;;;;;;5017537;28;20211;-46
2022/10/17 11:19:51;;;;;;;5.17;3.47;;;19.30;99.90;;;;;;5030362;28;20199;-43
2022/10/17 11:22:25;;;;;;;5.27;3.37;;;19.30;99.90;;;;;;5037991;28;20274;-44
2022/10/17 11:24:58;;;;;;;6.23;3.17;;;19.30;99.90;;;;;;5030788;28;20233;-42
2022/10/17 11:27:29;;;;;;;5.17;3.37;;;19.30;99.90;;;;;;5029665;28;20249;-42
2022/10/17 11:29:56;;;;;;;5.67;3.80;;;19.30;99.90;;;;;;5029917;28;20332;-45
2022/10/17 11:32:27;;;;;;;4.00;3.47;;;19.30;99.90;;;;;;5029825;28;20206;-42
2022/10/17 11:34:58;;;;;;;7.47;3.87;;;19.40;99.90;;;;;;5019803;28;20214;-43
2022/10/17 11:37:28;;;;;;;4.03;3.00;;;19.40;99.90;;;;;;5029540;28;20200;-42
2022/10/17 11:40:02;;;;;;;4.13;3.57;;;19.50;99.90;;;;;;5038500;28;20269;-44
2022/10/17 11:42:35;;;;;;;4.37;3.47;;;19.50;99.90;;;;;;5032787;28;20194;-44
2022/10/17 11:45:07;;;;;;;5.37;3.53;;;19.50;99.90;;;;;;5038112;28;20196;-48
2022/10/17 11:47:43;;;;;;;4.10;3.70;;;19.60;99.90;;;;;;5029411;28;20239;-44
2022/10/17 11:50:23;;;;;;;5.23;3.70;;;19.60;99.90;;;;;;5008144;28;20215;-44
2022/10/17 11:52:54;;;;;;;5.63;3.73;;;19.60;99.90;;;;;;5034957;28;20270;-44
2022/10/17 11:55:23;;;;;;;7.27;3.60;;;19.60;99.90;;;;;;5026172;28;20211;-45
2022/10/17 11:58:01;;;;;;;9.07;4.47;;;19.60;99.90;;;;;;5030957;28;20258;-46
2022/10/17 12:00:38;;;;;;;7.47;4.57;;;19.60;99.90;;;;;;5031888;28;20211;-43
2022/10/17 12:03:28;;;;;;;7.03;5.27;;;19.60;99.90;;;;;;5032327;28;20231;-43
2022/10/17 12:06:00;;;;;;;8.43;3.43;;;19.60;99.90;;;;;;5024486;28;20212;-48
2022/10/17 12:08:38;;;;;;;6.60;3.77;;;19.60;99.90;;;;;;5028244;28;20212;-46
2022/10/17 12:11:14;;;;;;;6.47;4.27;;;19.60;99.90;;;;;;5034105;28;20225;-48
2022/10/17 12:13:51;;;;;;;4.80;3.50;;;19.60;99.90;;;;;;5025995;28;20194;-43
2022/10/17 12:16:45;;;;;;;5.83;3.90;;;19.60;99.90;;;;;;5034060;28;20657;-45
2022/10/17 12:19:22;;;;;;;7.87;3.90;;;19.50;99.90;;;;;;5032778;28;20231;-42
2022/10/17 12:21:59;;;;;;;11.40;6.43;;;19.40;99.90;;;;;;5021013;28;20281;-42
2022/10/17 12:24:37;;;;;;;4.13;3.17;;;19.20;99.90;;;;;;5039251;28;20199;-44
2022/10/17 12:27:41;;;;;;;7.10;4.57;;;19.10;99.90;;;;;;5015367;28;23501;-42
2022/10/17 12:30:19;;;;;;;7.60;5.17;;;18.80;99.90;;;;;;5032819;28;20498;-42
2022/10/17 12:33:05;;;;;;;6.07;5.47;;;18.70;99.90;;;;;;5030733;28;20286;-42
2022/10/17 12:35:35;;;;;;;6.97;6.27;;;18.50;99.90;;;;;;5019513;28;20222;-43
2022/10/17 12:38:25;;;;;;;7.17;5.83;;;18.50;99.90;;;;;;5033073;28;20252;-42
2022/10/17 12:41:05;;;;;;;8.40;5.97;;;18.40;99.90;;;;;;5035404;28;20453;-43
2022/10/17 12:43:54;;;;;;;9.33;6.47;;;18.30;99.90;;;;;;5033616;28;20230;-44
2022/10/17 12:46:59;;;;;;;7.73;5.10;;;18.30;99.90;;;;;;5036699;28;20202;-44
2022/10/17 12:49:42;;;;;;;6.80;5.80;;;18.20;99.90;;;;;;5033589;28;20272;-44
2022/10/17 12:52:42;;;;;;;6.77;5.57;;;18.10;99.90;;;;;;5022653;28;20405;-46
2022/10/17 12:55:13;;;;;;;18.53;10.00;;;18.10;99.90;;;;;;5025328;28;20211;-44
2022/10/17 12:57:48;;;;;;;9.30;7.27;;;18.10;99.90;;;;;;5036619;28;20203;-42
2022/10/17 13:00:23;;;;;;;9.40;6.67;;;18.10;99.90;;;;;;5030475;28;20219;-42
2022/10/17 13:02:54;;;;;;;11.13;7.87;;;18.00;99.90;;;;;;5030114;28;20210;-43
2022/10/17 13:05:27;;;;;;;11.83;7.50;;;18.00;99.90;;;;;;5035006;28;20207;-42
2022/10/17 13:07:56;;;;;;;10.93;5.97;;;18.00;99.90;;;;;;5019152;28;20226;-42
2022/10/17 13:10:26;;;;;;;6.70;5.73;;;18.00;99.90;;;;;;5039272;28;20691;-42
2022/10/17 13:13:04;;;;;;;6.43;5.90;;;17.90;99.90;;;;;;5036267;28;20199;-43